Time;durP1;ratioP1;P1;durP2;ratioP2;P2;SDS_P1;SDS_P2;PMS_P1;PMS_P2;Temp;Humidity;BMP_temperature;BMP_pressure;BME280_temperature;BME280_humidity;BME280_pressure;Samples;Min_cycle;Max_cycle;Signal;HPM_P1;HPM_P2
2022/02/11 00:00:50;;;;;;;0.60;0.60;;;5.30;99.90;;;5.62;100.00;98644.38;5078157;28;20804;-75
2022/02/11 00:06:13;;;;;;;0.70;0.60;;;5.00;99.90;;;5.43;100.00;98655.59;5081332;28;20471;-75
2022/02/11 00:08:43;;;;;;;0.70;0.60;;;4.90;99.90;;;5.35;100.00;98648.50;5077668;28;21156;-75
2022/02/11 00:11:16;;;;;;;0.70;0.70;;;4.80;99.90;;;5.36;100.00;98655.34;5079200;28;20527;-75
2022/02/11 00:13:47;;;;;;;0.80;0.73;;;4.80;99.90;;;5.32;100.00;98656.56;5080830;28;20551;-75
2022/02/11 00:16:17;;;;;;;0.80;0.80;;;4.80;99.90;;;5.30;100.00;98650.72;5081439;28;20560;-75
2022/02/11 00:18:48;;;;;;;0.70;0.70;;;4.70;99.90;;;5.35;100.00;98647.69;5077902;28;20486;-75
2022/02/11 00:21:21;;;;;;;0.70;0.70;;;4.70;99.90;;;5.31;100.00;98651.53;5079656;28;20470;-75
2022/02/11 00:23:51;;;;;;;0.80;0.80;;;4.70;99.90;;;5.19;100.00;98668.19;5080353;28;20459;-75
2022/02/11 00:26:20;;;;;;;0.83;0.80;;;4.40;99.90;;;5.22;100.00;98662.72;5079685;28;20914;-75
2022/02/11 00:34:27;;;;;;;0.70;0.67;;;4.50;99.90;;;5.14;100.00;98676.34;5077723;28;21034;-75
2022/02/11 00:37:07;;;;;;;0.70;0.70;;;4.40;99.90;;;5.12;100.00;98677.44;5080924;28;20471;-75
2022/02/11 00:40:05;;;;;;;0.70;0.60;;;4.40;99.90;;;5.12;100.00;98680.88;5077887;28;20510;-75
2022/02/11 00:45:48;;;;;;;0.63;0.60;;;4.60;99.90;;;5.04;100.00;98673.78;5012757;28;20450;-75
2022/02/11 01:02:51;;;;;;;1.53;0.70;;;4.30;99.90;;;5.04;100.00;98696.28;5086572;28;21315;-75
2022/02/11 01:05:21;;;;;;;1.07;0.70;;;4.40;99.90;;;5.05;100.00;98695.31;5081453;28;20531;-75
2022/02/11 01:07:51;;;;;;;1.07;0.80;;;4.40;99.90;;;5.05;100.00;98692.75;5081751;28;20459;-75
2022/02/11 01:10:23;;;;;;;0.70;0.60;;;4.40;99.90;;;5.04;100.00;98691.09;5079941;28;20468;-75
2022/02/11 01:12:54;;;;;;;0.70;0.70;;;4.30;99.90;;;4.93;100.00;98693.81;5082365;28;20805;-75
2022/02/11 01:15:23;;;;;;;0.60;0.60;;;4.20;99.90;;;4.83;100.00;98698.16;5079374;28;20930;-75
2022/02/11 01:17:57;;;;;;;0.70;0.63;;;4.00;99.90;;;4.79;100.00;98697.63;5081211;28;20452;-75
2022/02/11 01:20:41;;;;;;;0.77;0.70;;;3.90;99.90;;;4.87;100.00;98702.13;5080971;28;20494;-75
2022/02/11 01:23:20;;;;;;;0.70;0.60;;;4.10;99.90;;;4.85;100.00;98706.63;5077169;28;20462;-75
2022/02/11 01:26:06;;;;;;;0.70;0.70;;;4.00;99.90;;;4.87;100.00;98710.72;5077359;28;20462;-75
2022/02/11 01:28:48;;;;;;;1.13;1.07;;;4.10;99.90;;;4.87;100.00;98713.31;5078793;28;20462;-75
2022/02/11 01:31:24;;;;;;;0.70;0.70;;;4.00;99.90;;;4.87;100.00;98712.50;5080726;28;20459;-75
2022/02/11 01:34:14;;;;;;;0.70;0.70;;;4.00;99.90;;;4.84;100.00;98707.59;5080001;28;20499;-75
2022/02/11 01:37:02;;;;;;;0.80;0.80;;;4.00;99.90;;;4.83;100.00;98721.47;5079253;28;20473;-75
2022/02/11 01:40:10;;;;;;;1.47;0.90;;;4.00;99.90;;;4.84;100.00;98731.72;5078921;28;20498;-75
2022/02/11 01:51:38;;;;;;;0.97;0.80;;;4.00;99.90;;;4.67;100.00;98723.78;5079631;28;20503;-75
2022/02/11 01:54:15;;;;;;;0.70;0.70;;;3.90;99.90;;;4.70;100.00;98734.69;5084950;28;20459;-75
2022/02/11 01:56:57;;;;;;;0.93;0.80;;;4.10;99.90;;;4.67;100.00;98737.56;5076061;28;20516;-75
2022/02/11 02:06:05;;;;;;;0.80;0.80;;;3.90;99.90;;;4.63;100.00;98731.00;5045141;28;20833;-75
2022/02/11 02:11:46;;;;;;;1.00;0.80;;;3.90;99.90;;;4.64;100.00;98740.41;5062063;28;20479;-75
2022/02/11 02:23:11;;;;;;;1.47;1.27;;;4.00;99.90;;;4.62;100.00;98736.31;5032493;28;20466;-75
2022/02/11 02:25:51;;;;;;;1.50;1.40;;;3.90;99.90;;;4.62;100.00;98741.50;5065774;28;20490;-75
2022/02/11 02:34:11;;;;;;;7.00;1.37;;;4.00;99.90;;;4.55;100.00;98744.59;5061688;28;20549;-75
2022/02/11 02:56:37;;;;;;;2.60;1.77;;;4.00;99.90;;;4.41;100.00;98770.03;5063337;28;20470;-75
2022/02/11 02:56:49;;;;;;;2.50;1.73;;;3.80;99.90;;;4.36;100.00;98773.03;5067026;28;20476;-75
2022/02/11 02:59:37;;;;;;;2.80;1.73;;;3.90;99.90;;;4.28;100.00;98762.50;5064291;28;20478;-75
2022/02/11 03:14:21;;;;;;;3.60;1.70;;;3.90;99.90;;;4.25;100.00;98767.94;5063219;28;20533;-75
2022/02/11 03:48:33;;;;;;;2.40;1.77;;;3.30;99.90;;;3.94;100.00;98792.97;5049271;28;20612;-75
2022/02/11 03:50:18;;;;;;;6.80;2.23;;;3.10;99.90;;;3.63;100.00;98829.22;5049839;28;20495;-75
2022/02/11 04:21:45;;;;;;;23.60;3.10;;;3.10;99.90;;;3.73;100.00;98876.66;5049621;28;20983;-75
2022/02/11 04:55:19;;;;;;;3.00;2.43;;;3.20;99.90;;;3.65;100.00;98910.06;5051905;28;21013;-75
2022/02/11 05:00:39;;;;;;;4.67;2.80;;;3.20;99.90;;;3.67;100.00;98915.94;5052517;28;20910;-75
2022/02/11 05:03:09;;;;;;;4.77;2.97;;;3.10;99.90;;;3.64;100.00;98913.59;5047473;28;20521;-75
2022/02/11 05:05:50;;;;;;;6.63;3.10;;;3.00;99.90;;;3.63;100.00;98911.97;5042449;28;21000;-82
2022/02/11 05:08:20;;;;;;;4.23;2.97;;;3.10;99.90;;;3.60;100.00;98927.72;5048172;28;20485;-74
2022/02/11 05:10:52;;;;;;;5.97;2.60;;;3.00;99.90;;;3.61;100.00;98919.81;5045717;28;20968;-74
2022/02/11 05:13:23;;;;;;;4.73;2.90;;;3.10;99.90;;;3.57;100.00;98923.63;5051871;28;21002;-73
2022/02/11 05:15:54;;;;;;;4.30;3.33;;;3.10;99.90;;;3.55;100.00;98926.31;5048881;28;20797;-80
2022/02/11 05:18:24;;;;;;;8.93;3.20;;;3.00;99.90;;;3.59;100.00;98923.47;5048988;28;20540;-75
2022/02/11 05:20:54;;;;;;;14.13;3.03;;;3.00;99.90;;;3.53;100.00;98933.38;5048542;28;20494;-75
2022/02/11 05:23:23;;;;;;;8.80;4.30;;;3.10;99.90;;;3.48;100.00;98930.31;5050918;28;21119;-80
2022/02/11 05:25:52;;;;;;;5.60;3.30;;;3.00;99.90;;;3.48;100.00;98940.66;5051710;28;20484;-75
2022/02/11 05:28:22;;;;;;;4.57;3.38;;;3.00;99.90;;;3.50;100.00;98943.97;5049146;28;20487;-75
2022/02/11 05:31:01;;;;;;;8.57;3.33;;;2.90;99.90;;;3.47;100.00;98951.13;5054093;28;20201;-75
2022/02/11 05:33:31;;;;;;;6.33;2.80;;;2.90;99.90;;;3.50;100.00;98949.13;5052647;28;20468;-75
2022/02/11 05:36:03;;;;;;;6.50;4.13;;;3.00;99.90;;;3.44;100.00;98962.53;5054397;28;20457;-75
2022/02/11 05:38:33;;;;;;;15.83;3.00;;;2.90;99.90;;;3.47;100.00;98957.09;5054525;28;20448;-74
2022/02/11 05:41:06;;;;;;;7.70;2.77;;;3.00;99.90;;;3.51;100.00;98962.84;5056468;28;20441;-74
2022/02/11 05:43:40;;;;;;;13.13;3.27;;;3.00;99.90;;;3.44;100.00;98959.09;5055333;28;20993;-74
2022/02/11 05:46:11;;;;;;;5.37;3.80;;;3.00;99.90;;;3.49;100.00;98968.16;5054912;28;20458;-75
2022/02/11 05:48:40;;;;;;;7.67;2.70;;;2.90;99.90;;;3.50;100.00;98982.75;5055801;28;20485;-75
2022/02/11 05:51:11;;;;;;;5.97;3.03;;;3.00;99.90;;;3.47;100.00;98970.03;5054940;28;20451;-75
2022/02/11 05:53:42;;;;;;;8.67;3.20;;;2.90;99.90;;;3.47;100.00;98969.22;5055909;28;20505;-74
2022/02/11 05:56:15;;;;;;;8.50;3.60;;;3.00;99.90;;;3.45;100.00;98984.03;5055977;28;20477;-74
2022/02/11 05:58:49;;;;;;;9.53;3.00;;;2.90;99.90;;;3.42;100.00;98981.69;5052323;28;20468;-75
2022/02/11 06:01:19;;;;;;;3.80;2.90;;;2.90;99.90;;;3.43;100.00;98981.56;5053135;28;20484;-75
2022/02/11 06:03:49;;;;;;;9.27;3.80;;;2.90;99.90;;;3.42;100.00;98990.25;5056747;28;20500;-75
2022/02/11 06:06:21;;;;;;;7.37;3.10;;;2.90;99.90;;;3.41;100.00;98996.38;5053780;28;20510;-75
2022/02/11 06:08:52;;;;;;;4.67;2.90;;;2.80;99.90;;;3.38;100.00;99006.94;5056359;28;20502;-75
2022/02/11 06:11:22;;;;;;;4.70;2.90;;;2.70;99.90;;;3.35;100.00;99003.78;5054670;28;20460;-75
2022/02/11 06:13:54;;;;;;;4.50;2.40;;;2.60;99.90;;;3.33;100.00;98998.72;5054348;28;20507;-75
2022/02/11 06:16:29;;;;;;;6.60;2.73;;;2.60;99.90;;;3.27;100.00;98998.34;5055293;28;20583;-74
2022/02/11 06:19:00;;;;;;;4.47;2.73;;;2.60;99.90;;;3.11;100.00;99009.06;5051786;28;20507;-75
2022/02/11 06:21:30;;;;;;;10.37;3.43;;;2.40;99.90;;;3.11;100.00;99003.88;5054157;28;20468;-75
2022/02/11 06:24:01;;;;;;;5.43;2.93;;;2.50;99.90;;;3.04;100.00;99007.88;5054202;28;20495;-74
2022/02/11 06:26:31;;;;;;;6.47;2.83;;;2.30;99.90;;;2.98;100.00;99011.75;5054183;28;20959;-74
2022/02/11 06:29:04;;;;;;;7.20;3.20;;;2.30;99.90;;;2.98;100.00;99013.50;5054764;28;20966;-74
2022/02/11 06:31:34;;;;;;;3.33;3.03;;;2.30;99.90;;;2.99;100.00;99010.78;5054455;28;21188;-74
2022/02/11 06:34:04;;;;;;;10.00;3.73;;;2.20;99.90;;;2.96;100.00;99015.38;5056872;28;20463;-75
2022/02/11 06:36:33;;;;;;;8.07;3.60;;;2.40;99.90;;;2.93;100.00;99025.94;5055571;28;21044;-75
2022/02/11 06:39:04;;;;;;;8.13;3.50;;;2.30;99.90;;;2.88;100.00;99025.47;5055263;28;20447;-75
2022/02/11 06:41:34;;;;;;;10.60;2.83;;;2.20;99.90;;;2.91;100.00;99040.72;5053707;28;20865;-74
2022/02/11 06:44:08;;;;;;;8.43;3.10;;;2.10;99.90;;;2.89;100.00;99052.91;5056107;28;20948;-75
2022/02/11 06:46:40;;;;;;;7.33;3.27;;;2.00;99.90;;;2.84;100.00;99058.44;5052327;28;20457;-75
2022/02/11 06:49:10;;;;;;;6.13;3.07;;;2.10;99.90;;;2.81;100.00;99073.34;5060141;28;20444;-75
2022/02/11 06:51:40;;;;;;;14.63;3.40;;;2.00;99.90;;;2.82;100.00;99074.97;5058931;28;20491;-75
2022/02/11 06:54:10;;;;;;;4.13;3.27;;;2.00;99.90;;;2.82;100.00;99074.97;5059884;28;20900;-75
2022/02/11 06:56:43;;;;;;;13.90;4.40;;;2.20;99.90;;;2.85;100.00;99077.31;5057528;28;21050;-75
2022/02/11 06:59:14;;;;;;;11.87;3.43;;;2.10;99.90;;;2.82;100.00;99080.97;5056370;28;20535;-75
2022/02/11 07:01:44;;;;;;;5.40;2.80;;;2.20;99.90;;;2.85;100.00;99082.50;5059022;28;20520;-75
2022/02/11 07:04:17;;;;;;;7.60;3.50;;;2.30;99.90;;;2.86;100.00;99086.72;5058396;28;20498;-74
2022/02/11 07:06:50;;;;;;;11.53;3.60;;;2.30;99.90;;;2.87;100.00;99083.22;5056874;28;20456;-75
2022/02/11 07:09:23;;;;;;;8.90;3.53;;;2.30;99.90;;;2.91;100.00;99102.72;5058669;28;20472;-75
2022/02/11 07:11:53;;;;;;;5.70;2.93;;;2.30;99.90;;;2.97;100.00;99108.25;5056004;28;20477;-75
2022/02/11 07:14:25;;;;;;;5.97;3.53;;;2.30;99.90;;;3.04;100.00;99116.38;5054900;28;20477;-75
2022/02/11 07:16:58;;;;;;;12.33;4.07;;;2.30;99.90;;;3.10;100.00;99113.34;5056405;28;20454;-75
2022/02/11 07:19:30;;;;;;;6.33;3.73;;;2.50;99.90;;;3.13;100.00;99115.69;5054722;28;20496;-75
2022/02/11 07:22:01;;;;;;;14.60;4.57;;;2.50;99.90;;;3.16;100.00;99125.78;5054275;28;20451;-75
2022/02/11 07:24:33;;;;;;;7.50;3.23;;;2.50;99.90;;;3.22;100.00;99127.13;5053068;28;20534;-75
2022/02/11 07:27:06;;;;;;;11.50;3.30;;;2.60;99.90;;;3.23;100.00;99136.53;5053018;28;20451;-75
2022/02/11 07:29:39;;;;;;;9.40;3.37;;;2.50;99.90;;;3.24;100.00;99138.16;5052966;28;20805;-75
2022/02/11 07:32:11;;;;;;;124.57;14.67;;;2.60;99.90;;;3.29;100.00;99136.88;5053640;28;20448;-75
2022/02/11 07:34:40;;;;;;;9.10;3.80;;;2.70;99.90;;;3.31;100.00;99139.34;5055969;28;20502;-75
2022/02/11 07:37:12;;;;;;;55.30;7.00;;;2.80;99.90;;;3.34;100.00;99147.69;5055442;28;20447;-76
2022/02/11 07:39:53;;;;;;;16.07;4.30;;;2.80;99.90;;;3.38;100.00;99153.44;5054579;28;20465;-75
2022/02/11 07:42:25;;;;;;;9.77;3.77;;;2.90;99.90;;;3.41;100.00;99156.63;5053469;28;20566;-75
2022/02/11 07:44:59;;;;;;;10.10;4.30;;;2.80;99.90;;;3.47;100.00;99166.50;5055408;28;20493;-75
2022/02/11 07:47:32;;;;;;;55.83;9.80;;;2.80;99.90;;;3.50;100.00;99161.13;5053058;28;20455;-75
2022/02/11 07:50:03;;;;;;;15.73;4.53;;;2.90;99.90;;;3.54;100.00;99161.69;5054200;28;20444;-75
2022/02/11 07:52:34;;;;;;;38.30;6.30;;;3.00;99.90;;;3.59;100.00;99163.94;5053195;28;20452;-75
2022/02/11 07:55:04;;;;;;;11.77;3.90;;;3.00;99.90;;;3.64;100.00;99167.03;5054800;28;20452;-75
2022/02/11 07:57:37;;;;;;;11.60;4.77;;;3.10;99.90;;;3.63;100.00;99162.78;5052453;28;20471;-75
2022/02/11 08:00:11;;;;;;;12.43;3.47;;;3.00;99.90;;;3.65;100.00;99169.47;5055998;28;21263;-76
2022/02/11 08:02:41;;;;;;;6.70;3.30;;;3.00;99.90;;;3.65;100.00;99168.66;5058520;28;20508;-75
2022/02/11 08:05:12;;;;;;;8.80;3.47;;;3.00;99.90;;;3.65;100.00;99176.41;5058588;28;20504;-75
2022/02/11 08:07:45;;;;;;;21.03;4.63;;;3.10;99.90;;;3.58;100.00;99182.97;5054680;28;20476;-75
2022/02/11 08:10:16;;;;;;;41.93;9.87;;;3.00;99.90;;;3.63;100.00;99196.41;5056308;28;20452;-75
2022/02/11 08:12:49;;;;;;;8.97;4.10;;;3.00;99.90;;;3.65;100.00;99194.50;5057564;28;20807;-75
2022/02/11 08:15:23;;;;;;;7.07;3.27;;;3.10;99.90;;;3.61;100.00;99203.47;5055933;28;20471;-75
2022/02/11 08:17:53;;;;;;;7.57;3.00;;;3.10;99.90;;;3.59;100.00;99200.97;5056186;28;20473;-75
2022/02/11 08:20:26;;;;;;;5.43;3.50;;;3.10;99.90;;;3.64;100.00;99210.97;5056886;28;20449;-75
2022/02/11 08:22:57;;;;;;;5.07;2.83;;;3.10;99.90;;;3.68;100.00;99209.81;5058184;28;20449;-76
2022/02/11 08:25:29;;;;;;;24.20;6.17;;;3.20;99.90;;;3.71;100.00;99212.19;5051699;28;20495;-75
2022/02/11 08:27:59;;;;;;;8.97;3.53;;;3.20;99.90;;;3.72;100.00;99221.56;5053320;28;20470;-75
2022/02/11 08:30:51;;;;;;;11.53;3.30;;;3.20;99.90;;;3.76;100.00;99218.63;5056786;28;20942;-75
2022/02/11 08:33:24;;;;;;;4.07;3.37;;;3.20;99.90;;;3.80;100.00;99224.41;5055040;28;20851;-75
2022/02/11 08:35:58;;;;;;;11.57;3.23;;;3.30;99.90;;;3.84;100.00;99223.25;5052436;28;20454;-75
2022/02/11 08:38:28;;;;;;;9.83;3.73;;;3.40;99.90;;;3.88;100.00;99232.41;5057115;28;21001;-76
2022/02/11 08:41:01;;;;;;;6.03;2.93;;;3.40;99.90;;;3.89;100.00;99239.22;5055091;28;20466;-75
2022/02/11 08:43:34;;;;;;;5.83;2.77;;;3.40;99.90;;;3.91;100.00;99242.53;5058185;28;20451;-75
2022/02/11 08:46:05;;;;;;;10.23;3.40;;;3.40;99.90;;;3.94;100.00;99257.81;5055660;28;20963;-75
2022/02/11 08:48:35;;;;;;;51.60;7.37;;;3.40;99.90;;;3.96;100.00;99243.00;5056325;28;20826;-75
2022/02/11 08:51:08;;;;;;;6.53;2.80;;;3.40;99.90;;;3.97;100.00;99248.06;5055359;28;20451;-75
2022/02/11 08:53:38;;;;;;;11.10;3.03;;;3.40;99.90;;;4.05;100.00;99263.03;5057235;28;20445;-75
2022/02/11 08:56:10;;;;;;;22.83;6.70;;;3.40;99.90;;;4.09;100.00;99256.69;5052222;28;20483;-75
2022/02/11 08:58:39;;;;;;;12.10;5.30;;;3.60;99.90;;;4.09;100.00;99256.69;5056257;28;20475;-75
2022/02/11 09:01:11;;;;;;;52.03;8.57;;;3.60;99.90;;;4.12;100.00;99260.78;5057425;28;20487;-75
2022/02/11 09:03:41;;;;;;;12.53;3.47;;;3.60;99.90;;;4.13;100.00;99257.28;5056495;28;20447;-75
2022/02/11 09:06:21;;;;;;;18.87;4.90;;;3.70;99.90;;;4.15;100.00;99266.56;5057267;28;20449;-75
2022/02/11 09:08:52;;;;;;;82.40;13.33;;;3.60;99.90;;;4.17;100.00;99274.19;5056071;28;20488;-75
2022/02/11 09:11:22;;;;;;;5.13;3.00;;;3.60;99.90;;;4.18;100.00;99287.03;5055769;28;20442;-75
2022/02/11 09:13:55;;;;;;;12.43;3.07;;;3.60;99.90;;;4.18;100.00;99299.13;5051702;28;20458;-75
2022/02/11 09:16:26;;;;;;;6.33;3.03;;;3.60;99.90;;;4.23;100.00;99300.47;5052568;28;20470;-75
2022/02/11 09:19:09;;;;;;;17.50;3.27;;;3.80;99.90;;;4.28;100.00;99302.69;5052720;28;21017;-75
2022/02/11 09:21:39;;;;;;;10.77;3.30;;;3.80;99.90;;;4.32;100.00;99310.09;5053447;28;20539;-75
2022/02/11 09:24:09;;;;;;;13.83;2.83;;;3.80;99.90;;;4.35;100.00;99315.06;5051745;28;20491;-75
2022/02/11 09:26:40;;;;;;;12.60;3.80;;;3.90;99.90;;;4.40;100.00;99323.31;5052554;28;20528;-75
2022/02/11 09:29:09;;;;;;;6.67;3.00;;;4.00;99.90;;;4.46;100.00;99325.41;5052596;28;20511;-75
2022/02/11 09:31:47;;;;;;;6.80;3.30;;;3.90;99.90;;;4.52;100.00;99337.88;5052069;28;20524;-75
2022/02/11 09:34:16;;;;;;;9.27;2.50;;;3.90;99.90;;;4.54;100.00;99341.22;5052317;28;20477;-75
2022/02/11 09:36:49;;;;;;;15.90;3.43;;;4.10;99.90;;;4.56;100.00;99343.66;5050503;28;20537;-75
2022/02/11 09:39:19;;;;;;;12.37;3.17;;;4.00;99.90;;;4.58;100.00;99345.19;5051276;28;21025;-75
2022/02/11 09:41:50;;;;;;;9.30;3.70;;;4.10;99.90;;;4.60;100.00;99346.84;5053683;28;20829;-75
2022/02/11 09:44:24;;;;;;;9.03;2.90;;;4.10;99.90;;;4.58;100.00;99352.97;5051266;28;20527;-75
2022/02/11 09:46:57;;;;;;;10.40;3.37;;;4.10;99.90;;;4.64;100.00;99358.63;5053278;28;20536;-75
2022/02/11 09:49:26;;;;;;;8.17;3.07;;;4.20;99.90;;;4.67;100.00;99368.75;5049538;28;20486;-75
2022/02/11 09:52:00;;;;;;;23.20;4.03;;;4.20;99.90;;;4.72;100.00;99374.41;5053905;28;20553;-75
2022/02/11 09:54:33;;;;;;;7.40;3.20;;;4.20;99.90;;;4.73;100.00;99384.66;5050846;28;20509;-75
2022/02/11 09:57:03;;;;;;;20.43;5.40;;;4.10;99.90;;;4.79;100.00;99380.78;5054807;28;20511;-75
2022/02/11 09:59:36;;;;;;;19.90;4.07;;;4.20;99.90;;;4.83;100.00;99389.94;5054528;28;20467;-75
2022/02/11 10:02:09;;;;;;;3.43;2.30;;;4.30;99.90;;;4.80;100.00;99408.31;5054697;28;20475;-75
2022/02/11 10:04:39;;;;;;;42.97;9.23;;;4.30;99.90;;;4.81;100.00;99415.16;5055072;28;20588;-75
2022/02/11 10:07:13;;;;;;;9.20;2.63;;;4.30;99.90;;;4.78;100.00;99418.00;5055744;28;20474;-75
2022/02/11 10:09:47;;;;;;;6.60;2.50;;;4.30;99.90;;;4.78;100.00;99421.41;5054782;28;20523;-76
2022/02/11 10:12:25;;;;;;;6.53;2.70;;;4.30;99.90;;;4.82;100.00;99422.00;5054207;28;20471;-75
2022/02/11 10:14:56;;;;;;;6.33;2.73;;;4.40;99.90;;;4.84;100.00;99430.47;5054150;28;20470;-75
2022/02/11 10:17:27;;;;;;;12.87;3.40;;;4.30;99.90;;;4.87;100.00;99440.59;5052907;28;20453;-75
2022/02/11 10:19:57;;;;;;;19.77;4.13;;;4.40;99.90;;;4.91;100.00;99442.03;5052609;28;20458;-75
2022/02/11 10:22:30;;;;;;;31.53;5.83;;;4.40;99.90;;;4.98;100.00;99443.19;5053852;28;20466;-75
2022/02/11 10:25:05;;;;;;;23.07;4.70;;;4.50;99.90;;;5.03;100.00;99436.72;5058073;28;21027;-75
2022/02/11 10:27:37;;;;;;;9.80;3.50;;;4.50;99.90;;;5.00;100.00;99447.31;5057559;28;20476;-75
2022/02/11 10:30:12;;;;;;;79.70;13.27;;;4.50;99.90;;;5.06;100.00;99446.88;5058140;28;20462;-76
2022/02/11 10:32:48;;;;;;;7.40;2.83;;;4.50;99.90;;;5.09;100.00;99451.00;5060545;28;20875;-75
2022/02/11 10:35:27;;;;;;;7.87;2.70;;;4.70;99.90;;;5.15;100.00;99455.69;5058762;28;20451;-75
2022/02/11 10:38:10;;;;;;;24.50;6.37;;;4.60;99.90;;;5.17;100.00;99459.00;5058021;28;20478;-75
2022/02/11 10:40:45;;;;;;;35.00;3.80;;;4.80;99.90;;;5.20;100.00;99458.78;5060951;28;20929;-75
2022/02/11 10:43:26;;;;;;;12.97;3.43;;;4.80;99.90;;;5.24;100.00;99459.34;5055629;28;20460;-75
2022/02/11 10:46:01;;;;;;;7.17;2.70;;;4.80;99.90;;;5.26;100.00;99460.88;5058676;28;20495;-75
2022/02/11 10:48:36;;;;;;;7.60;2.50;;;4.80;99.90;;;5.27;100.00;99464.31;5059929;28;20522;-75
2022/02/11 10:51:23;;;;;;;10.37;2.67;;;4.80;99.90;;;5.31;100.00;99455.34;5057920;28;20535;-75
2022/02/11 10:53:54;;;;;;;5.03;2.10;;;4.80;99.90;;;5.37;100.00;99473.84;5057024;28;20446;-75
2022/02/11 10:56:29;;;;;;;12.43;3.30;;;4.90;99.90;;;5.43;100.00;99459.56;5055459;28;20458;-75
2022/02/11 10:59:02;;;;;;;5.50;2.60;;;5.00;99.90;;;5.46;100.00;99460.16;5058796;28;20504;-76
2022/02/11 11:01:34;;;;;;;12.70;3.10;;;5.10;99.90;;;5.47;100.00;99466.16;5057551;28;20469;-75
2022/02/11 11:04:09;;;;;;;10.37;4.10;;;5.00;99.90;;;5.46;100.00;99459.31;5058929;28;20488;-75
2022/02/11 11:06:39;;;;;;;77.97;12.23;;;5.00;99.90;;;5.46;100.00;99454.13;5058172;28;20491;-75
2022/02/11 11:09:10;;;;;;;25.27;5.30;;;5.00;99.90;;;5.42;100.00;99448.38;5056421;28;20546;-75
2022/02/11 11:11:43;;;;;;;37.80;6.07;;;5.00;99.90;;;5.49;100.00;99457.31;5057150;28;21345;-74
2022/02/11 11:14:15;;;;;;;5.47;2.40;;;5.10;99.90;;;5.51;100.00;99452.84;5053923;28;20480;-75
2022/02/11 11:16:47;;;;;;;12.80;2.30;;;5.10;99.90;;;5.58;100.00;99455.78;5054405;28;20461;-76
2022/02/11 11:19:31;;;;;;;8.93;2.27;;;5.20;99.90;;;5.62;100.00;99451.19;5055254;28;20485;-75
2022/02/11 11:22:14;;;;;;;19.67;3.50;;;5.20;99.90;;;5.63;100.00;99458.81;5055886;28;20448;-75
2022/02/11 11:24:54;;;;;;;27.13;4.87;;;5.10;99.90;;;5.66;100.00;99453.38;5053952;28;20499;-75
2022/02/11 11:27:50;;;;;;;8.13;2.10;;;5.20;99.90;;;5.67;100.00;99442.06;5054188;28;20445;-75
2022/02/11 11:30:36;;;;;;;5.27;2.40;;;5.20;99.90;;;5.67;100.00;99452.44;5054921;28;21155;-75
2022/02/11 11:33:26;;;;;;;53.17;8.57;;;5.20;99.90;;;5.74;100.00;99450.19;5056076;28;20453;-75
2022/02/11 11:36:22;;;;;;;39.63;7.07;;;5.30;99.90;;;5.77;100.00;99452.53;5054402;28;20452;-75
2022/02/11 11:39:22;;;;;;;24.00;4.07;;;5.30;99.90;;;5.84;100.00;99453.69;5042169;28;20457;-75
2022/02/11 11:42:15;;;;;;;47.20;10.00;;;5.30;99.90;;;5.82;100.00;99461.63;5056176;28;20454;-75
2022/02/11 11:44:53;;;;;;;24.90;5.43;;;5.30;99.90;;;5.78;100.00;99462.00;5053526;28;20810;-75
2022/02/11 11:47:33;;;;;;;8.23;2.30;;;5.30;99.90;;;5.78;100.00;99462.81;5057749;28;20582;-75
2022/02/11 11:50:08;;;;;;;9.37;2.07;;;5.40;99.90;;;5.75;100.00;99467.41;5057680;28;20444;-75
2022/02/11 11:52:48;;;;;;;12.20;2.77;;;5.20;99.90;;;5.79;100.00;99461.88;5056494;28;20450;-75
2022/02/11 11:55:24;;;;;;;7.63;2.27;;;5.30;99.90;;;5.83;100.00;99457.28;5054949;28;20510;-75
2022/02/11 11:57:55;;;;;;;10.50;1.97;;;5.30;99.90;;;5.85;100.00;99455.38;5058348;28;20448;-75
2022/02/11 12:00:41;;;;;;;6.60;1.80;;;5.30;99.90;;;5.86;100.00;99462.25;5055398;28;20535;-75
2022/02/11 12:03:12;;;;;;;10.80;2.20;;;5.40;99.90;;;5.86;100.00;99464.84;5057110;28;20516;-75
2022/02/11 12:05:53;;;;;;;9.40;2.67;;;5.40;99.90;;;5.92;100.00;99466.94;5057018;28;20582;-75
2022/02/11 12:08:29;;;;;;;6.97;2.43;;;5.40;99.90;;;6.00;100.00;99467.16;5058874;28;20517;-75
2022/02/11 12:11:00;;;;;;;14.33;2.33;;;5.50;99.90;;;6.10;100.00;99459.44;5056913;28;20458;-75
2022/02/11 12:13:32;;;;;;;7.00;2.43;;;5.60;99.90;;;6.14;100.00;99466.88;5058476;28;20565;-76
2022/02/11 12:16:03;;;;;;;10.77;3.00;;;5.60;99.90;;;6.06;100.00;99464.06;5056682;28;21025;-75
2022/02/11 12:18:37;;;;;;;6.23;2.37;;;5.50;99.90;;;6.08;100.00;99456.97;5055279;28;20535;-75
2022/02/11 12:21:09;;;;;;;43.17;7.70;;;5.50;99.90;;;6.13;100.00;99459.19;5057400;28;21090;-75
2022/02/11 12:29:23;;;;;;;11.93;2.57;;;5.60;99.90;;;6.34;100.00;99460.88;5053293;28;20967;-75
2022/02/11 12:31:55;;;;;;;12.93;2.90;;;5.90;99.90;;;6.40;100.00;99462.13;5051556;28;20977;-76
2022/02/11 12:34:26;;;;;;;93.00;16.57;;;6.00;99.90;;;6.43;100.00;99472.28;5042083;28;20441;-75
2022/02/11 12:37:07;;;;;;;10.40;1.93;;;5.90;99.90;;;6.48;96.94;99467.53;5056022;28;20491;-75
2022/02/11 12:39:41;;;;;;;23.30;4.47;;;6.00;99.90;;;6.57;95.85;99469.38;5056526;28;20489;-75
2022/02/11 12:42:17;;;;;;;11.30;2.70;;;6.10;99.90;;;6.63;94.47;99462.88;5056999;28;20459;-75
2022/02/11 12:44:49;;;;;;;8.03;2.33;;;6.10;99.90;;;6.64;92.27;99474.88;5053954;28;20502;-75
2022/02/11 12:47:22;;;;;;;23.30;4.70;;;6.20;99.90;;;6.67;92.69;99480.66;5055532;28;21192;-75
2022/02/11 12:49:56;;;;;;;19.23;2.90;;;6.20;99.90;;;6.74;92.69;99488.75;5056496;28;20540;-75
2022/02/11 12:52:30;;;;;;;4.70;1.83;;;6.30;99.90;;;6.73;88.65;99489.75;5054710;28;20449;-75
2022/02/11 12:55:14;;;;;;;17.60;3.47;;;6.30;99.90;;;6.72;89.20;99486.31;5054822;28;20504;-75
2022/02/11 12:57:49;;;;;;;12.60;3.00;;;6.30;99.90;;;6.77;87.81;99491.13;5057304;28;20506;-75
2022/02/11 13:00:24;;;;;;;12.23;3.13;;;6.40;99.90;;;6.78;88.16;99497.97;5056405;28;20478;-75
2022/02/11 13:02:58;;;;;;;7.83;2.50;;;6.40;99.90;;;6.71;91.10;99496.81;5051035;28;20460;-75
2022/02/11 13:05:33;;;;;;;5.37;2.07;;;6.20;99.90;;;6.76;94.68;99497.28;5052719;28;20506;-75
2022/02/11 13:08:04;;;;;;;5.20;2.07;;;6.30;99.90;;;6.63;99.35;99509.66;5054749;28;20465;-75
2022/02/11 13:10:39;;;;;;;9.00;1.80;;;6.10;99.90;;;6.62;100.00;99502.78;5051433;28;20444;-75
2022/02/11 13:13:16;;;;;;;10.50;2.00;;;6.20;99.90;;;6.47;100.00;99507.47;5050183;28;20449;-75
2022/02/11 13:15:47;;;;;;;12.33;2.80;;;6.10;99.90;;;6.35;100.00;99495.47;5051145;28;20471;-75
2022/02/11 13:18:23;;;;;;;11.33;2.13;;;5.80;99.90;;;6.24;100.00;99505.91;5054751;28;20473;-75
2022/02/11 13:20:55;;;;;;;9.20;2.13;;;5.60;99.90;;;6.26;100.00;99506.59;5054247;28;20452;-75
2022/02/11 13:23:27;;;;;;;9.97;1.80;;;5.60;99.90;;;6.24;100.00;99509.34;5053138;28;20445;-75
2022/02/11 13:26:01;;;;;;;14.53;3.07;;;5.70;99.90;;;6.21;100.00;99516.53;5052616;28;20453;-75
2022/02/11 13:28:46;;;;;;;202.53;27.93;;;5.80;99.90;;;6.18;100.00;99504.59;5052799;28;20449;-75
2022/02/11 13:31:18;;;;;;;149.23;17.47;;;5.70;99.90;;;6.15;100.00;99510.06;5052092;28;21254;-75
2022/02/11 13:34:04;;;;;;;72.47;7.60;;;5.60;99.90;;;6.13;100.00;99505.94;5051537;28;20457;-75
2022/02/11 13:36:34;;;;;;;10.30;3.20;;;5.50;99.90;;;6.16;100.00;99522.09;5053103;28;20475;-75
2022/02/11 13:39:06;;;;;;;15.37;2.50;;;5.60;99.90;;;6.19;100.00;99514.06;5053238;28;20458;-75
2022/02/11 13:41:38;;;;;;;4.90;2.23;;;5.70;99.90;;;6.20;100.00;99517.47;5051666;28;20445;-75
2022/02/11 13:44:13;;;;;;;4.63;1.50;;;5.70;99.90;;;6.01;100.00;99513.75;5052936;28;20449;-75
2022/02/11 13:46:56;;;;;;;9.73;1.97;;;5.50;99.90;;;6.07;100.00;99509.88;5055149;28;20517;-75
2022/02/11 13:49:27;;;;;;;3.70;1.77;;;5.50;99.90;;;6.13;100.00;99530.13;5053972;28;20490;-75
2022/02/11 13:54:58;;;;;;;21.40;3.40;;;5.50;99.90;;;6.11;100.00;99537.19;5054730;28;20975;-75
2022/02/11 13:57:30;;;;;;;17.00;2.07;;;5.50;99.90;;;6.16;100.00;99534.25;5054624;28;20498;-75
2022/02/11 14:00:31;;;;;;;6.23;2.40;;;5.70;99.90;;;6.15;100.00;99540.38;5057343;28;20459;-75
2022/02/11 14:03:00;;;;;;;12.30;3.10;;;5.60;99.90;;;6.19;100.00;99542.63;5055313;28;20492;-75